sensor_id;sensor_type;location;lat;lon;timestamp;P1;durP1;ratioP1;P2;durP2;ratioP2
75096;SDS011;63684;47.964;11.186;2023-08-01T00:00:29;3.83;;;2.97;;
75096;SDS011;63684;47.964;11.186;2023-08-01T00:02:56;3.47;;;2.50;;
75096;SDS011;63684;47.964;11.186;2023-08-01T00:05:22;4.55;;;2.55;;
75096;SDS011;63684;47.964;11.186;2023-08-01T00:07:48;6.43;;;2.67;;
75096;SDS011;63684;47.964;11.186;2023-08-01T00:10:14;6.30;;;2.63;;
75096;SDS011;63684;47.964;11.186;2023-08-01T00:12:41;3.22;;;2.92;;
75096;SDS011;63684;47.964;11.186;2023-08-01T00:15:07;3.58;;;2.60;;
75096;SDS011;63684;47.964;11.186;2023-08-01T00:17:33;4.15;;;2.70;;
75096;SDS011;63684;47.964;11.186;2023-08-01T00:20:00;4.05;;;2.70;;
75096;SDS011;63684;47.964;11.186;2023-08-01T00:22:26;3.97;;;2.90;;
75096;SDS011;63684;47.964;11.186;2023-08-01T00:24:52;3.28;;;2.70;;
75096;SDS011;63684;47.964;11.186;2023-08-01T00:27:17;3.92;;;2.92;;
75096;SDS011;63684;47.964;11.186;2023-08-01T00:29:44;3.25;;;2.13;;
75096;SDS011;63684;47.964;11.186;2023-08-01T00:32:10;6.05;;;2.88;;
75096;SDS011;63684;47.964;11.186;2023-08-01T00:34:36;3.08;;;2.78;;
75096;SDS011;63684;47.964;11.186;2023-08-01T00:37:02;3.60;;;3.08;;
75096;SDS011;63684;47.964;11.186;2023-08-01T00:39:28;4.80;;;2.42;;
75096;SDS011;63684;47.964;11.186;2023-08-01T00:41:53;3.92;;;2.90;;
75096;SDS011;63684;47.964;11.186;2023-08-01T00:44:21;3.67;;;2.72;;
75096;SDS011;63684;47.964;11.186;2023-08-01T00:46:46;3.70;;;2.70;;
75096;SDS011;63684;47.964;11.186;2023-08-01T00:49:14;2.80;;;2.50;;
75096;SDS011;63684;47.964;11.186;2023-08-01T00:51:40;3.00;;;2.70;;
75096;SDS011;63684;47.964;11.186;2023-08-01T00:54:07;6.95;;;2.63;;
75096;SDS011;63684;47.964;11.186;2023-08-01T00:56:34;3.38;;;2.50;;
75096;SDS011;63684;47.964;11.186;2023-08-01T00:59:00;6.03;;;2.40;;
75096;SDS011;63684;47.964;11.186;2023-08-01T01:01:28;5.97;;;2.65;;
75096;SDS011;63684;47.964;11.186;2023-08-01T01:03:54;3.67;;;2.60;;
75096;SDS011;63684;47.964;11.186;2023-08-01T01:06:20;2.80;;;2.55;;
75096;SDS011;63684;47.964;11.186;2023-08-01T01:08:48;5.03;;;2.65;;
75096;SDS011;63684;47.964;11.186;2023-08-01T01:11:14;4.20;;;2.90;;
75096;SDS011;63684;47.964;11.186;2023-08-01T01:13:40;4.63;;;2.83;;
75096;SDS011;63684;47.964;11.186;2023-08-01T01:16:06;3.53;;;2.78;;
75096;SDS011;63684;47.964;11.186;2023-08-01T01:18:33;3.88;;;3.00;;
75096;SDS011;63684;47.964;11.186;2023-08-01T01:20:59;4.05;;;2.45;;
75096;SDS011;63684;47.964;11.186;2023-08-01T01:23:25;6.32;;;3.00;;
75096;SDS011;63684;47.964;11.186;2023-08-01T01:25:52;5.55;;;2.60;;
75096;SDS011;63684;47.964;11.186;2023-08-01T01:28:19;4.57;;;2.72;;
75096;SDS011;63684;47.964;11.186;2023-08-01T01:30:45;2.95;;;2.65;;
75096;SDS011;63684;47.964;11.186;2023-08-01T01:36:09;3.72;;;2.70;;
75096;SDS011;63684;47.964;11.186;2023-08-01T01:38:35;4.68;;;2.60;;
75096;SDS011;63684;47.964;11.186;2023-08-01T01:41:02;6.35;;;2.45;;
75096;SDS011;63684;47.964;11.186;2023-08-01T01:43:28;3.85;;;2.63;;
75096;SDS011;63684;47.964;11.186;2023-08-01T01:45:53;2.33;;;2.08;;
75096;SDS011;63684;47.964;11.186;2023-08-01T01:48:19;3.60;;;2.30;;
75096;SDS011;63684;47.964;11.186;2023-08-01T01:50:44;5.07;;;4.20;;
75096;SDS011;63684;47.964;11.186;2023-08-01T01:53:10;7.25;;;3.38;;
75096;SDS011;63684;47.964;11.186;2023-08-01T01:55:37;3.92;;;3.53;;
75096;SDS011;63684;47.964;11.186;2023-08-01T01:58:03;3.58;;;2.90;;
75096;SDS011;63684;47.964;11.186;2023-08-01T02:00:28;3.10;;;2.50;;
75096;SDS011;63684;47.964;11.186;2023-08-01T02:02:53;3.25;;;2.60;;
75096;SDS011;63684;47.964;11.186;2023-08-01T02:05:19;3.50;;;2.53;;
75096;SDS011;63684;47.964;11.186;2023-08-01T02:07:45;3.85;;;2.33;;
75096;SDS011;63684;47.964;11.186;2023-08-01T02:10:11;4.50;;;2.80;;
75096;SDS011;63684;47.964;11.186;2023-08-01T02:12:38;3.47;;;2.70;;
75096;SDS011;63684;47.964;11.186;2023-08-01T02:15:04;3.20;;;2.90;;
75096;SDS011;63684;47.964;11.186;2023-08-01T02:17:31;4.97;;;3.03;;
75096;SDS011;63684;47.964;11.186;2023-08-01T02:19:56;3.08;;;2.78;;
75096;SDS011;63684;47.964;11.186;2023-08-01T02:22:25;4.32;;;2.70;;
75096;SDS011;63684;47.964;11.186;2023-08-01T02:24:51;4.70;;;2.70;;
75096;SDS011;63684;47.964;11.186;2023-08-01T02:27:18;3.58;;;2.50;;
75096;SDS011;63684;47.964;11.186;2023-08-01T02:29:43;3.55;;;2.72;;
75096;SDS011;63684;47.964;11.186;2023-08-01T02:32:10;3.30;;;2.75;;
75096;SDS011;63684;47.964;11.186;2023-08-01T02:34:37;4.10;;;2.60;;
75096;SDS011;63684;47.964;11.186;2023-08-01T02:37:03;6.65;;;3.20;;
75096;SDS011;63684;47.964;11.186;2023-08-01T02:39:29;4.00;;;2.53;;
75096;SDS011;63684;47.964;11.186;2023-08-01T02:41:56;4.22;;;2.58;;
75096;SDS011;63684;47.964;11.186;2023-08-01T02:44:22;5.75;;;2.60;;
75096;SDS011;63684;47.964;11.186;2023-08-01T02:46:48;4.88;;;3.03;;
75096;SDS011;63684;47.964;11.186;2023-08-01T02:49:16;6.53;;;3.17;;
75096;SDS011;63684;47.964;11.186;2023-08-01T02:51:42;4.15;;;2.60;;
75096;SDS011;63684;47.964;11.186;2023-08-01T02:54:08;7.05;;;3.05;;
75096;SDS011;63684;47.964;11.186;2023-08-01T02:56:34;3.83;;;2.92;;
75096;SDS011;63684;47.964;11.186;2023-08-01T02:59:00;4.85;;;3.22;;
75096;SDS011;63684;47.964;11.186;2023-08-01T03:01:25;5.55;;;3.00;;
75096;SDS011;63684;47.964;11.186;2023-08-01T03:03:51;3.92;;;2.83;;
75096;SDS011;63684;47.964;11.186;2023-08-01T03:06:17;3.78;;;2.63;;
75096;SDS011;63684;47.964;11.186;2023-08-01T03:08:43;3.15;;;2.85;;
75096;SDS011;63684;47.964;11.186;2023-08-01T03:11:09;3.95;;;2.78;;
75096;SDS011;63684;47.964;11.186;2023-08-01T03:13:35;3.35;;;2.88;;
75096;SDS011;63684;47.964;11.186;2023-08-01T03:16:02;4.65;;;3.10;;
75096;SDS011;63684;47.964;11.186;2023-08-01T03:18:29;3.90;;;2.90;;
75096;SDS011;63684;47.964;11.186;2023-08-01T03:20:55;5.60;;;2.75;;
75096;SDS011;63684;47.964;11.186;2023-08-01T03:23:21;6.07;;;2.75;;
75096;SDS011;63684;47.964;11.186;2023-08-01T03:25:46;3.92;;;2.55;;
75096;SDS011;63684;47.964;11.186;2023-08-01T03:28:12;6.68;;;3.20;;
75096;SDS011;63684;47.964;11.186;2023-08-01T03:30:40;6.82;;;3.10;;
75096;SDS011;63684;47.964;11.186;2023-08-01T03:33:06;4.05;;;2.60;;
75096;SDS011;63684;47.964;11.186;2023-08-01T03:35:32;3.78;;;2.75;;
75096;SDS011;63684;47.964;11.186;2023-08-01T03:37:57;4.63;;;2.88;;
75096;SDS011;63684;47.964;11.186;2023-08-01T03:40:23;3.25;;;2.83;;
75096;SDS011;63684;47.964;11.186;2023-08-01T03:42:49;4.50;;;2.90;;
75096;SDS011;63684;47.964;11.186;2023-08-01T03:45:15;5.72;;;2.70;;
75096;SDS011;63684;47.964;11.186;2023-08-01T03:47:41;5.10;;;3.10;;
75096;SDS011;63684;47.964;11.186;2023-08-01T03:50:07;3.80;;;3.20;;
75096;SDS011;63684;47.964;11.186;2023-08-01T03:52:34;3.65;;;2.90;;
75096;SDS011;63684;47.964;11.186;2023-08-01T03:55:00;4.65;;;3.38;;
75096;SDS011;63684;47.964;11.186;2023-08-01T03:57:25;4.95;;;3.33;;
75096;SDS011;63684;47.964;11.186;2023-08-01T03:59:53;4.00;;;2.90;;
75096;SDS011;63684;47.964;11.186;2023-08-01T04:02:18;4.30;;;3.05;;
75096;SDS011;63684;47.964;11.186;2023-08-01T04:04:44;5.47;;;2.78;;
75096;SDS011;63684;47.964;11.186;2023-08-01T04:07:10;3.90;;;3.08;;
75096;SDS011;63684;47.964;11.186;2023-08-01T04:09:35;3.45;;;3.15;;
75096;SDS011;63684;47.964;11.186;2023-08-01T04:12:03;4.10;;;3.28;;
75096;SDS011;63684;47.964;11.186;2023-08-01T04:14:32;4.35;;;2.92;;
75096;SDS011;63684;47.964;11.186;2023-08-01T04:16:58;6.85;;;3.35;;
75096;SDS011;63684;47.964;11.186;2023-08-01T04:19:23;3.75;;;2.95;;
75096;SDS011;63684;47.964;11.186;2023-08-01T04:21:50;4.78;;;3.65;;
75096;SDS011;63684;47.964;11.186;2023-08-01T04:24:16;3.53;;;3.13;;
75096;SDS011;63684;47.964;11.186;2023-08-01T04:26:41;4.65;;;3.58;;
75096;SDS011;63684;47.964;11.186;2023-08-01T04:29:07;4.60;;;2.83;;
75096;SDS011;63684;47.964;11.186;2023-08-01T04:31:33;3.97;;;3.00;;
75096;SDS011;63684;47.964;11.186;2023-08-01T04:33:59;3.58;;;2.88;;
75096;SDS011;63684;47.964;11.186;2023-08-01T04:36:26;5.15;;;2.80;;
75096;SDS011;63684;47.964;11.186;2023-08-01T04:38:52;4.65;;;3.30;;
75096;SDS011;63684;47.964;11.186;2023-08-01T04:41:17;6.60;;;2.95;;
75096;SDS011;63684;47.964;11.186;2023-08-01T04:43:43;5.05;;;3.47;;
75096;SDS011;63684;47.964;11.186;2023-08-01T04:48:35;3.80;;;3.00;;
75096;SDS011;63684;47.964;11.186;2023-08-01T04:51:01;6.88;;;3.42;;
75096;SDS011;63684;47.964;11.186;2023-08-01T04:53:26;5.15;;;3.33;;
75096;SDS011;63684;47.964;11.186;2023-08-01T04:55:51;6.72;;;3.20;;
75096;SDS011;63684;47.964;11.186;2023-08-01T04:58:17;4.15;;;3.00;;
75096;SDS011;63684;47.964;11.186;2023-08-01T05:00:42;4.75;;;3.47;;
75096;SDS011;63684;47.964;11.186;2023-08-01T05:03:08;5.35;;;3.20;;
75096;SDS011;63684;47.964;11.186;2023-08-01T05:05:33;4.00;;;3.28;;
75096;SDS011;63684;47.964;11.186;2023-08-01T05:07:59;4.07;;;3.17;;
75096;SDS011;63684;47.964;11.186;2023-08-01T05:10:24;4.35;;;3.10;;
75096;SDS011;63684;47.964;11.186;2023-08-01T05:12:49;6.13;;;3.80;;
75096;SDS011;63684;47.964;11.186;2023-08-01T05:15:15;5.88;;;3.50;;
75096;SDS011;63684;47.964;11.186;2023-08-01T05:17:40;4.45;;;3.33;;
75096;SDS011;63684;47.964;11.186;2023-08-01T05:20:06;4.70;;;3.70;;
75096;SDS011;63684;47.964;11.186;2023-08-01T05:22:32;7.93;;;4.00;;
75096;SDS011;63684;47.964;11.186;2023-08-01T05:24:57;4.88;;;3.72;;
75096;SDS011;63684;47.964;11.186;2023-08-01T05:27:23;5.50;;;3.13;;
75096;SDS011;63684;47.964;11.186;2023-08-01T05:29:48;4.95;;;3.20;;
75096;SDS011;63684;47.964;11.186;2023-08-01T05:32:14;3.58;;;3.20;;
75096;SDS011;63684;47.964;11.186;2023-08-01T05:34:39;4.30;;;3.75;;
75096;SDS011;63684;47.964;11.186;2023-08-01T05:37:05;6.00;;;3.38;;
75096;SDS011;63684;47.964;11.186;2023-08-01T05:39:30;7.28;;;3.58;;
75096;SDS011;63684;47.964;11.186;2023-08-01T05:41:55;9.32;;;3.75;;
75096;SDS011;63684;47.964;11.186;2023-08-01T05:44:21;5.00;;;3.15;;
75096;SDS011;63684;47.964;11.186;2023-08-01T05:46:46;6.25;;;3.33;;
75096;SDS011;63684;47.964;11.186;2023-08-01T05:49:12;5.13;;;3.13;;
75096;SDS011;63684;47.964;11.186;2023-08-01T05:51:37;5.05;;;3.20;;
75096;SDS011;63684;47.964;11.186;2023-08-01T05:54:03;5.90;;;3.58;;
75096;SDS011;63684;47.964;11.186;2023-08-01T05:56:28;6.50;;;2.97;;
75096;SDS011;63684;47.964;11.186;2023-08-01T05:58:54;5.40;;;3.28;;
75096;SDS011;63684;47.964;11.186;2023-08-01T06:01:20;3.80;;;3.20;;
75096;SDS011;63684;47.964;11.186;2023-08-01T06:03:45;4.50;;;3.00;;
75096;SDS011;63684;47.964;11.186;2023-08-01T06:06:10;3.53;;;2.97;;
75096;SDS011;63684;47.964;11.186;2023-08-01T06:08:40;5.55;;;3.00;;
75096;SDS011;63684;47.964;11.186;2023-08-01T06:11:05;6.20;;;3.08;;
75096;SDS011;63684;47.964;11.186;2023-08-01T06:13:30;6.82;;;3.40;;
75096;SDS011;63684;47.964;11.186;2023-08-01T06:15:56;4.85;;;3.15;;
75096;SDS011;63684;47.964;11.186;2023-08-01T06:18:21;5.80;;;3.45;;
75096;SDS011;63684;47.964;11.186;2023-08-01T06:20:47;3.65;;;3.30;;
75096;SDS011;63684;47.964;11.186;2023-08-01T06:23:12;3.78;;;2.92;;
75096;SDS011;63684;47.964;11.186;2023-08-01T06:25:38;5.15;;;3.00;;
75096;SDS011;63684;47.964;11.186;2023-08-01T06:28:03;4.55;;;3.05;;
75096;SDS011;63684;47.964;11.186;2023-08-01T06:30:29;4.88;;;2.75;;
75096;SDS011;63684;47.964;11.186;2023-08-01T06:32:54;3.67;;;2.70;;
75096;SDS011;63684;47.964;11.186;2023-08-01T06:35:19;3.05;;;2.72;;
75096;SDS011;63684;47.964;11.186;2023-08-01T06:37:46;5.95;;;2.75;;
75096;SDS011;63684;47.964;11.186;2023-08-01T06:40:11;4.72;;;3.05;;
75096;SDS011;63684;47.964;11.186;2023-08-01T06:42:37;3.28;;;2.83;;
75096;SDS011;63684;47.964;11.186;2023-08-01T06:45:02;3.20;;;2.60;;
75096;SDS011;63684;47.964;11.186;2023-08-01T06:47:28;3.15;;;2.53;;
75096;SDS011;63684;47.964;11.186;2023-08-01T06:49:53;4.22;;;3.20;;
75096;SDS011;63684;47.964;11.186;2023-08-01T06:52:19;4.57;;;2.38;;
75096;SDS011;63684;47.964;11.186;2023-08-01T06:54:44;6.32;;;2.63;;
75096;SDS011;63684;47.964;11.186;2023-08-01T06:57:10;4.03;;;2.85;;
75096;SDS011;63684;47.964;11.186;2023-08-01T06:59:35;3.33;;;2.88;;
75096;SDS011;63684;47.964;11.186;2023-08-01T07:02:01;7.72;;;3.10;;
75096;SDS011;63684;47.964;11.186;2023-08-01T07:04:26;3.45;;;2.63;;
75096;SDS011;63684;47.964;11.186;2023-08-01T07:06:52;4.15;;;2.75;;
75096;SDS011;63684;47.964;11.186;2023-08-01T07:09:17;4.03;;;2.58;;
75096;SDS011;63684;47.964;11.186;2023-08-01T07:11:42;3.70;;;2.60;;
75096;SDS011;63684;47.964;11.186;2023-08-01T07:14:08;4.05;;;2.92;;
75096;SDS011;63684;47.964;11.186;2023-08-01T07:16:33;3.83;;;3.28;;
75096;SDS011;63684;47.964;11.186;2023-08-01T07:18:59;4.30;;;2.70;;
75096;SDS011;63684;47.964;11.186;2023-08-01T07:21:26;3.45;;;2.60;;
75096;SDS011;63684;47.964;11.186;2023-08-01T07:23:51;4.32;;;3.00;;
75096;SDS011;63684;47.964;11.186;2023-08-01T07:26:17;6.22;;;2.78;;
75096;SDS011;63684;47.964;11.186;2023-08-01T07:28:42;3.55;;;2.63;;
75096;SDS011;63684;47.964;11.186;2023-08-01T07:31:08;3.17;;;2.30;;
75096;SDS011;63684;47.964;11.186;2023-08-01T07:33:35;5.53;;;2.88;;
75096;SDS011;63684;47.964;11.186;2023-08-01T07:36:01;6.28;;;2.65;;
75096;SDS011;63684;47.964;11.186;2023-08-01T07:38:27;4.40;;;2.67;;
75096;SDS011;63684;47.964;11.186;2023-08-01T07:40:52;3.65;;;2.60;;
75096;SDS011;63684;47.964;11.186;2023-08-01T07:43:18;3.00;;;2.70;;
75096;SDS011;63684;47.964;11.186;2023-08-01T07:45:44;7.13;;;3.42;;
75096;SDS011;63684;47.964;11.186;2023-08-01T07:48:10;6.32;;;2.97;;
75096;SDS011;63684;47.964;11.186;2023-08-01T07:50:35;4.38;;;2.97;;
75096;SDS011;63684;47.964;11.186;2023-08-01T07:53:01;5.38;;;2.78;;
75096;SDS011;63684;47.964;11.186;2023-08-01T07:55:26;4.28;;;2.60;;
75096;SDS011;63684;47.964;11.186;2023-08-01T07:57:52;5.72;;;3.20;;
75096;SDS011;63684;47.964;11.186;2023-08-01T08:00:17;4.72;;;2.85;;
75096;SDS011;63684;47.964;11.186;2023-08-01T08:02:43;3.65;;;3.03;;
75096;SDS011;63684;47.964;11.186;2023-08-01T08:05:09;4.63;;;2.92;;
75096;SDS011;63684;47.964;11.186;2023-08-01T08:07:36;4.63;;;2.88;;
75096;SDS011;63684;47.964;11.186;2023-08-01T08:10:02;4.93;;;3.22;;
75096;SDS011;63684;47.964;11.186;2023-08-01T08:12:27;5.25;;;3.25;;
75096;SDS011;63684;47.964;11.186;2023-08-01T08:14:53;5.05;;;3.00;;
75096;SDS011;63684;47.964;11.186;2023-08-01T08:17:18;7.05;;;3.10;;
75096;SDS011;63684;47.964;11.186;2023-08-01T08:19:44;4.18;;;3.20;;
75096;SDS011;63684;47.964;11.186;2023-08-01T08:22:09;4.22;;;3.15;;
75096;SDS011;63684;47.964;11.186;2023-08-01T08:24:35;4.10;;;2.92;;
75096;SDS011;63684;47.964;11.186;2023-08-01T08:27:00;7.70;;;3.08;;
75096;SDS011;63684;47.964;11.186;2023-08-01T08:29:25;7.55;;;3.35;;
75096;SDS011;63684;47.964;11.186;2023-08-01T08:31:51;4.13;;;3.33;;
75096;SDS011;63684;47.964;11.186;2023-08-01T08:34:17;4.45;;;3.20;;
75096;SDS011;63684;47.964;11.186;2023-08-01T08:36:42;4.15;;;2.90;;
75096;SDS011;63684;47.964;11.186;2023-08-01T08:39:08;5.40;;;3.55;;
75096;SDS011;63684;47.964;11.186;2023-08-01T08:41:45;8.13;;;3.65;;
75096;SDS011;63684;47.964;11.186;2023-08-01T08:44:13;4.72;;;3.63;;
75096;SDS011;63684;47.964;11.186;2023-08-01T08:46:41;4.38;;;2.95;;
75096;SDS011;63684;47.964;11.186;2023-08-01T08:49:08;3.25;;;2.95;;
75096;SDS011;63684;47.964;11.186;2023-08-01T08:51:34;4.70;;;3.60;;
75096;SDS011;63684;47.964;11.186;2023-08-01T08:54:01;3.75;;;2.92;;
75096;SDS011;63684;47.964;11.186;2023-08-01T08:56:27;5.40;;;3.58;;
75096;SDS011;63684;47.964;11.186;2023-08-01T08:58:53;3.33;;;2.85;;
75096;SDS011;63684;47.964;11.186;2023-08-01T09:01:19;5.07;;;3.47;;
75096;SDS011;63684;47.964;11.186;2023-08-01T09:03:44;3.47;;;3.00;;
75096;SDS011;63684;47.964;11.186;2023-08-01T09:06:14;7.65;;;3.60;;
75096;SDS011;63684;47.964;11.186;2023-08-01T09:08:43;5.85;;;3.78;;
75096;SDS011;63684;47.964;11.186;2023-08-01T09:11:12;6.85;;;3.92;;
75096;SDS011;63684;47.964;11.186;2023-08-01T09:13:37;6.18;;;4.22;;
75096;SDS011;63684;47.964;11.186;2023-08-01T09:16:03;6.90;;;4.45;;
75096;SDS011;63684;47.964;11.186;2023-08-01T09:18:31;5.40;;;3.95;;
75096;SDS011;63684;47.964;11.186;2023-08-01T09:20:57;7.50;;;3.80;;
75096;SDS011;63684;47.964;11.186;2023-08-01T09:23:27;6.75;;;4.53;;
75096;SDS011;63684;47.964;11.186;2023-08-01T09:25:52;7.68;;;4.10;;
75096;SDS011;63684;47.964;11.186;2023-08-01T09:28:19;7.18;;;4.45;;
75096;SDS011;63684;47.964;11.186;2023-08-01T09:30:50;9.35;;;4.13;;
75096;SDS011;63684;47.964;11.186;2023-08-01T09:33:16;10.52;;;4.50;;
75096;SDS011;63684;47.964;11.186;2023-08-01T09:35:42;6.32;;;4.03;;
75096;SDS011;63684;47.964;11.186;2023-08-01T09:38:11;5.32;;;3.95;;
75096;SDS011;63684;47.964;11.186;2023-08-01T09:40:39;4.72;;;3.60;;
75096;SDS011;63684;47.964;11.186;2023-08-01T09:43:04;5.00;;;3.85;;
75096;SDS011;63684;47.964;11.186;2023-08-01T09:45:30;4.30;;;3.15;;
75096;SDS011;63684;47.964;11.186;2023-08-01T09:47:55;6.63;;;3.15;;
75096;SDS011;63684;47.964;11.186;2023-08-01T09:50:21;4.45;;;3.25;;
75096;SDS011;63684;47.964;11.186;2023-08-01T09:52:48;5.40;;;3.65;;
75096;SDS011;63684;47.964;11.186;2023-08-01T09:55:26;4.45;;;3.20;;
75096;SDS011;63684;47.964;11.186;2023-08-01T09:57:56;7.20;;;2.90;;
75096;SDS011;63684;47.964;11.186;2023-08-01T10:00:22;4.10;;;3.13;;
75096;SDS011;63684;47.964;11.186;2023-08-01T10:02:48;5.63;;;3.20;;
75096;SDS011;63684;47.964;11.186;2023-08-01T10:05:15;6.35;;;3.75;;
75096;SDS011;63684;47.964;11.186;2023-08-01T10:07:41;5.32;;;3.05;;
75096;SDS011;63684;47.964;11.186;2023-08-01T10:10:08;5.82;;;3.42;;
75096;SDS011;63684;47.964;11.186;2023-08-01T10:12:33;5.47;;;3.20;;
75096;SDS011;63684;47.964;11.186;2023-08-01T10:15:00;4.70;;;3.08;;
75096;SDS011;63684;47.964;11.186;2023-08-01T10:17:25;3.20;;;2.85;;
75096;SDS011;63684;47.964;11.186;2023-08-01T10:19:51;7.50;;;3.72;;
75096;SDS011;63684;47.964;11.186;2023-08-01T10:22:18;4.28;;;3.42;;
75096;SDS011;63684;47.964;11.186;2023-08-01T10:24:45;3.63;;;3.28;;
75096;SDS011;63684;47.964;11.186;2023-08-01T10:27:18;6.55;;;3.47;;
75096;SDS011;63684;47.964;11.186;2023-08-01T10:29:44;4.05;;;3.40;;
75096;SDS011;63684;47.964;11.186;2023-08-01T10:32:10;4.47;;;3.03;;
75096;SDS011;63684;47.964;11.186;2023-08-01T10:34:35;5.90;;;3.55;;
75096;SDS011;63684;47.964;11.186;2023-08-01T10:37:01;5.93;;;3.50;;
75096;SDS011;63684;47.964;11.186;2023-08-01T10:39:27;4.00;;;3.15;;
75096;SDS011;63684;47.964;11.186;2023-08-01T10:41:59;4.75;;;3.33;;
75096;SDS011;63684;47.964;11.186;2023-08-01T10:44:26;4.53;;;3.30;;
75096;SDS011;63684;47.964;11.186;2023-08-01T10:46:53;4.57;;;3.45;;
75096;SDS011;63684;47.964;11.186;2023-08-01T10:49:32;6.78;;;3.33;;
75096;SDS011;63684;47.964;11.186;2023-08-01T10:52:17;6.53;;;3.45;;
75096;SDS011;63684;47.964;11.186;2023-08-01T10:54:44;4.07;;;3.15;;
75096;SDS011;63684;47.964;11.186;2023-08-01T10:57:17;5.55;;;3.35;;
75096;SDS011;63684;47.964;11.186;2023-08-01T10:59:43;3.35;;;3.05;;
75096;SDS011;63684;47.964;11.186;2023-08-01T11:02:08;3.97;;;3.03;;
75096;SDS011;63684;47.964;11.186;2023-08-01T11:04:34;3.90;;;3.05;;
75096;SDS011;63684;47.964;11.186;2023-08-01T11:06:59;3.60;;;2.42;;
75096;SDS011;63684;47.964;11.186;2023-08-01T11:09:26;3.20;;;2.90;;
75096;SDS011;63684;47.964;11.186;2023-08-01T11:11:56;3.25;;;2.45;;
75096;SDS011;63684;47.964;11.186;2023-08-01T11:14:23;3.55;;;2.83;;
75096;SDS011;63684;47.964;11.186;2023-08-01T11:16:56;3.88;;;3.03;;
75096;SDS011;63684;47.964;11.186;2023-08-01T11:19:26;4.82;;;2.67;;
75096;SDS011;63684;47.964;11.186;2023-08-01T11:21:53;3.55;;;2.65;;
75096;SDS011;63684;47.964;11.186;2023-08-01T11:24:22;6.05;;;2.83;;
75096;SDS011;63684;47.964;11.186;2023-08-01T11:26:48;4.03;;;2.63;;
75096;SDS011;63684;47.964;11.186;2023-08-01T11:29:15;3.40;;;2.88;;
75096;SDS011;63684;47.964;11.186;2023-08-01T11:31:41;3.53;;;2.67;;
75096;SDS011;63684;47.964;11.186;2023-08-01T11:34:07;3.10;;;2.60;;
75096;SDS011;63684;47.964;11.186;2023-08-01T11:36:35;3.40;;;2.75;;
75096;SDS011;63684;47.964;11.186;2023-08-01T11:39:01;3.38;;;3.08;;
75096;SDS011;63684;47.964;11.186;2023-08-01T11:41:27;3.92;;;2.90;;
75096;SDS011;63684;47.964;11.186;2023-08-01T11:43:54;3.97;;;2.83;;
75096;SDS011;63684;47.964;11.186;2023-08-01T11:46:22;2.95;;;2.70;;
75096;SDS011;63684;47.964;11.186;2023-08-01T11:48:48;2.58;;;2.38;;
75096;SDS011;63684;47.964;11.186;2023-08-01T11:51:15;2.58;;;2.30;;
75096;SDS011;63684;47.964;11.186;2023-08-01T11:53:41;5.63;;;2.58;;
75096;SDS011;63684;47.964;11.186;2023-08-01T11:56:06;2.92;;;2.20;;
75096;SDS011;63684;47.964;11.186;2023-08-01T11:58:33;1.80;;;1.70;;
75096;SDS011;63684;47.964;11.186;2023-08-01T12:01:07;3.22;;;2.20;;
75096;SDS011;63684;47.964;11.186;2023-08-01T12:06:13;2.17;;;1.88;;
75096;SDS011;63684;47.964;11.186;2023-08-01T12:08:40;3.03;;;2.03;;
75096;SDS011;63684;47.964;11.186;2023-08-01T12:11:16;2.65;;;1.73;;
75096;SDS011;63684;47.964;11.186;2023-08-01T12:14:09;2.55;;;1.98;;
75096;SDS011;63684;47.964;11.186;2023-08-01T12:16:43;2.30;;;2.05;;
75096;SDS011;63684;47.964;11.186;2023-08-01T12:19:10;1.92;;;1.70;;
75096;SDS011;63684;47.964;11.186;2023-08-01T12:21:36;2.13;;;1.73;;
75096;SDS011;63684;47.964;11.186;2023-08-01T12:24:02;1.67;;;1.38;;
75096;SDS011;63684;47.964;11.186;2023-08-01T12:26:27;2.92;;;1.52;;
75096;SDS011;63684;47.964;11.186;2023-08-01T12:28:53;5.15;;;1.88;;
75096;SDS011;63684;47.964;11.186;2023-08-01T12:31:19;2.38;;;1.73;;
75096;SDS011;63684;47.964;11.186;2023-08-01T12:33:46;1.95;;;1.58;;
75096;SDS011;63684;47.964;11.186;2023-08-01T12:36:12;3.97;;;2.05;;
75096;SDS011;63684;47.964;11.186;2023-08-01T12:38:37;2.83;;;1.70;;
75096;SDS011;63684;47.964;11.186;2023-08-01T12:41:03;2.83;;;1.85;;
75096;SDS011;63684;47.964;11.186;2023-08-01T12:43:28;3.80;;;2.08;;
75096;SDS011;63684;47.964;11.186;2023-08-01T12:45:54;4.18;;;2.08;;
75096;SDS011;63684;47.964;11.186;2023-08-01T12:48:21;1.95;;;1.75;;
75096;SDS011;63684;47.964;11.186;2023-08-01T12:50:47;3.28;;;1.90;;
75096;SDS011;63684;47.964;11.186;2023-08-01T12:53:13;2.45;;;2.10;;
75096;SDS011;63684;47.964;11.186;2023-08-01T12:55:42;2.78;;;1.70;;
75096;SDS011;63684;47.964;11.186;2023-08-01T12:58:09;2.10;;;1.90;;
75096;SDS011;63684;47.964;11.186;2023-08-01T13:00:34;2.25;;;1.90;;
75096;SDS011;63684;47.964;11.186;2023-08-01T13:03:00;2.50;;;2.05;;
75096;SDS011;63684;47.964;11.186;2023-08-01T13:05:25;1.80;;;1.70;;
75096;SDS011;63684;47.964;11.186;2023-08-01T13:07:51;2.28;;;1.80;;
75096;SDS011;63684;47.964;11.186;2023-08-01T13:10:16;3.15;;;1.98;;
75096;SDS011;63684;47.964;11.186;2023-08-01T13:12:42;2.35;;;1.88;;
75096;SDS011;63684;47.964;11.186;2023-08-01T13:15:08;1.85;;;1.60;;
75096;SDS011;63684;47.964;11.186;2023-08-01T13:17:34;2.20;;;1.83;;
75096;SDS011;63684;47.964;11.186;2023-08-01T13:19:59;2.33;;;1.65;;
75096;SDS011;63684;47.964;11.186;2023-08-01T13:22:25;3.05;;;1.70;;
75096;SDS011;63684;47.964;11.186;2023-08-01T13:24:50;4.13;;;1.67;;
75096;SDS011;63684;47.964;11.186;2023-08-01T13:27:15;2.33;;;2.10;;
75096;SDS011;63684;47.964;11.186;2023-08-01T13:29:41;2.30;;;1.60;;
75096;SDS011;63684;47.964;11.186;2023-08-01T13:32:06;1.67;;;1.58;;
75096;SDS011;63684;47.964;11.186;2023-08-01T13:34:32;2.25;;;2.00;;
75096;SDS011;63684;47.964;11.186;2023-08-01T13:36:57;3.03;;;1.70;;
75096;SDS011;63684;47.964;11.186;2023-08-01T13:39:23;1.67;;;1.40;;
75096;SDS011;63684;47.964;11.186;2023-08-01T13:41:49;1.75;;;1.50;;
75096;SDS011;63684;47.964;11.186;2023-08-01T13:44:14;1.67;;;1.58;;
75096;SDS011;63684;47.964;11.186;2023-08-01T13:46:39;5.10;;;1.88;;
75096;SDS011;63684;47.964;11.186;2023-08-01T13:49:05;1.90;;;1.55;;
75096;SDS011;63684;47.964;11.186;2023-08-01T13:51:31;1.42;;;1.33;;
75096;SDS011;63684;47.964;11.186;2023-08-01T13:53:57;3.45;;;1.60;;
75096;SDS011;63684;47.964;11.186;2023-08-01T13:56:24;1.60;;;1.50;;
75096;SDS011;63684;47.964;11.186;2023-08-01T13:58:50;1.27;;;1.17;;
75096;SDS011;63684;47.964;11.186;2023-08-01T14:01:16;1.30;;;1.20;;
75096;SDS011;63684;47.964;11.186;2023-08-01T14:03:44;1.73;;;1.25;;
75096;SDS011;63684;47.964;11.186;2023-08-01T14:06:12;1.60;;;1.40;;
75096;SDS011;63684;47.964;11.186;2023-08-01T14:08:39;1.65;;;1.25;;
75096;SDS011;63684;47.964;11.186;2023-08-01T14:11:05;1.38;;;1.10;;
75096;SDS011;63684;47.964;11.186;2023-08-01T14:13:32;3.60;;;1.17;;
75096;SDS011;63684;47.964;11.186;2023-08-01T14:15:58;1.92;;;1.20;;
75096;SDS011;63684;47.964;11.186;2023-08-01T14:18:24;3.97;;;1.10;;
75096;SDS011;63684;47.964;11.186;2023-08-01T14:20:50;1.65;;;0.93;;
75096;SDS011;63684;47.964;11.186;2023-08-01T14:23:15;1.50;;;1.40;;
75096;SDS011;63684;47.964;11.186;2023-08-01T14:25:41;1.23;;;1.10;;
75096;SDS011;63684;47.964;11.186;2023-08-01T14:28:06;1.60;;;0.90;;
75096;SDS011;63684;47.964;11.186;2023-08-01T14:30:32;1.88;;;1.23;;
75096;SDS011;63684;47.964;11.186;2023-08-01T14:33:01;1.02;;;1.00;;
75096;SDS011;63684;47.964;11.186;2023-08-01T14:35:28;2.50;;;1.10;;